Terminal Aerodrome Forecast
Issued by NWS Albuquerque, NM

Home | Current Version | Previous Version | Text Only | Print | Product List | Glossary On
Versions: 1 2 3 4 5 6 7 8 9 10 11 12 13 14 15
000
FTUS45 KABQ 041100
TAFABQ
TAF
KABQ 041138Z 0412/0512 34006KT P6SM FEW040 SCT060
     FM042000 33012G21KT P6SM FEW070 SCT100
     FM050200 01011KT P6SM FEW100
      TEMPO 0503/0507 08011G19KT=

USA.gov is the U.S. government's official web portal to all federal, state and local government web resources and services.